Time;durP1;ratioP1;P1;durP2;ratioP2;P2;SDS_P1;SDS_P2;PMS_P1;PMS_P2;Temp;Humidity;BMP_temperature;BMP_pressure;BME280_temperature;BME280_humidity;BME280_pressure;Samples;Min_cycle;Max_cycle;Signal;HPM_P1;HPM_P2
2022/11/12 00:02:49;;;;;;;96.15;68.30;;;21.60;53.70;;;;;;4797543;55;21077;-45
2022/11/12 00:07:49;;;;;;;94.47;65.40;;;21.60;53.80;;;;;;4956879;55;21117;-47
2022/11/12 00:12:50;;;;;;;94.72;64.62;;;21.60;53.80;;;;;;4846792;55;21512;-47
2022/11/12 00:17:51;;;;;;;98.68;70.20;;;21.60;53.70;;;;;;4756673;55;21066;-43
2022/11/12 00:22:52;;;;;;;95.70;65.85;;;21.60;53.90;;;;;;5017925;55;21029;-42
2022/11/12 00:27:53;;;;;;;94.62;65.68;;;21.60;53.70;;;;;;4883142;55;21027;-38
2022/11/12 00:32:54;;;;;;;87.90;62.88;;;21.60;53.60;;;;;;4745833;55;21544;-31
2022/11/12 00:37:56;;;;;;;95.12;66.62;;;21.60;53.80;;;;;;4899320;55;21484;-38
2022/11/12 00:42:58;;;;;;;92.68;64.53;;;21.60;53.60;;;;;;4827269;55;21539;-47
2022/11/12 00:47:58;;;;;;;90.95;62.10;;;21.60;53.70;;;;;;5230276;55;21460;-42
2022/11/12 00:52:59;;;;;;;87.03;61.35;;;21.60;53.80;;;;;;4744817;59;21014;-37
2022/11/12 00:58:00;;;;;;;94.82;64.28;;;21.60;53.80;;;;;;4745225;59;21066;-48
2022/11/12 01:03:01;;;;;;;88.55;60.33;;;21.60;53.70;;;;;;4744902;59;21093;-41
2022/11/12 01:08:02;;;;;;;90.87;63.25;;;21.60;53.60;;;;;;5032643;55;21102;-47
2022/11/12 01:13:03;;;;;;;89.93;60.60;;;21.60;53.60;;;;;;4798214;55;21567;-41
2022/11/12 01:18:03;;;;;;;93.85;63.40;;;21.60;53.60;;;;;;4838940;55;21002;-31
2022/11/12 01:23:05;;;;;;;86.20;59.25;;;21.50;53.50;;;;;;4869301;55;21049;-43
2022/11/12 01:28:06;;;;;;;82.90;57.42;;;21.60;53.60;;;;;;5230885;55;21050;-29
2022/11/12 01:33:07;;;;;;;87.90;58.58;;;21.60;53.50;;;;;;5060464;55;21010;-42
2022/11/12 01:38:07;;;;;;;85.57;57.17;;;21.60;54.00;;;;;;4961450;55;21126;-36
2022/11/12 01:43:12;;;;;;;86.15;58.25;;;21.60;53.50;;;;;;4923385;55;21061;-46
2022/11/12 01:49:00;;;;;;;85.55;56.08;;;21.60;53.60;;;;;;4775136;55;21479;-47
2022/11/12 01:54:05;;;;;;;80.18;57.05;;;21.60;53.50;;;;;;4826703;55;21029;-44
2022/11/12 01:59:23;;;;;;;80.40;55.72;;;21.60;53.50;;;;;;4957263;55;20998;-46
2022/11/12 02:04:26;;;;;;;82.05;57.10;;;21.60;53.50;;;;;;5014492;55;20986;-41
2022/11/12 02:09:27;;;;;;;78.82;55.25;;;21.70;53.50;;;;;;4817160;55;21030;-46
2022/11/12 02:14:29;;;;;;;80.97;55.47;;;21.60;53.50;;;;;;4889505;55;21081;-43
2022/11/12 02:19:30;;;;;;;80.25;54.88;;;21.60;53.40;;;;;;4745498;59;21002;-46
2022/11/12 02:24:33;;;;;;;75.68;53.08;;;21.60;53.50;;;;;;4953062;55;21017;-47
2022/11/12 02:29:34;;;;;;;71.75;52.17;;;21.60;53.50;;;;;;4745389;59;21002;-38
2022/11/12 02:34:34;;;;;;;73.93;51.45;;;21.60;53.40;;;;;;4744302;59;21014;-43
2022/11/12 02:39:35;;;;;;;79.32;54.15;;;21.50;53.30;;;;;;4965470;55;21052;-40
2022/11/12 02:44:36;;;;;;;74.87;51.80;;;21.60;53.50;;;;;;4982284;55;21057;-43
2022/11/12 02:49:37;;;;;;;76.30;52.85;;;21.60;53.50;;;;;;5230645;55;21101;-42
2022/11/12 02:54:38;;;;;;;75.25;51.42;;;21.60;53.50;;;;;;4831489;55;21070;-42
2022/11/12 02:59:38;;;;;;;74.15;51.80;;;21.60;53.40;;;;;;4788486;55;21005;-40
2022/11/12 03:04:39;;;;;;;70.65;50.60;;;21.50;53.30;;;;;;4750255;55;21474;-44
2022/11/12 03:09:40;;;;;;;74.05;50.03;;;21.60;53.20;;;;;;4835852;55;21081;-47
2022/11/12 03:14:41;;;;;;;70.72;49.72;;;21.60;53.40;;;;;;5182778;55;21073;-37
2022/11/12 03:19:42;;;;;;;71.22;49.28;;;21.50;53.30;;;;;;4777229;55;21511;-45
2022/11/12 03:24:42;;;;;;;67.97;47.95;;;21.60;53.30;;;;;;4845958;55;21013;-41
2022/11/12 03:29:43;;;;;;;67.50;49.15;;;21.50;53.30;;;;;;5163511;55;21053;-47
2022/11/12 03:34:44;;;;;;;66.22;46.65;;;21.60;53.30;;;;;;4821656;55;21021;-45
2022/11/12 03:39:45;;;;;;;69.00;46.78;;;21.50;53.20;;;;;;4885364;55;20998;-46
2022/11/12 03:44:45;;;;;;;65.25;46.92;;;21.50;53.20;;;;;;4770986;55;21089;-38
2022/11/12 03:49:46;;;;;;;67.18;46.47;;;21.50;53.30;;;;;;5230637;55;21520;-44
2022/11/12 03:54:47;;;;;;;66.50;47.28;;;21.50;53.20;;;;;;4896677;55;21563;-43
2022/11/12 03:59:48;;;;;;;65.15;46.15;;;21.50;53.20;;;;;;4783310;55;21013;-42
2022/11/12 04:10:08;;;;;;;62.58;44.35;;;21.50;53.70;;;;;;4744799;55;21030;-42
2022/11/12 04:15:09;;;;;;;61.42;44.00;;;21.50;53.30;;;;;;4768550;55;21472;-40
2022/11/12 04:30:48;;;;;;;61.17;43.47;;;21.50;53.30;;;;;;4745167;55;21074;-39
2022/11/12 04:35:49;;;;;;;62.85;43.00;;;21.50;53.30;;;;;;4744394;59;21014;-46
2022/11/12 04:46:09;;;;;;;57.55;41.67;;;21.50;53.20;;;;;;4744988;55;21556;-44
2022/11/12 04:56:30;;;;;;;59.28;42.00;;;21.50;53.30;;;;;;4744084;55;21065;-46
2022/11/12 05:01:31;;;;;;;57.42;41.80;;;21.50;53.40;;;;;;4745038;59;20990;-46
2022/11/12 05:06:50;;;;;;;55.67;40.72;;;21.50;53.30;;;;;;4791993;55;20998;-47
2022/11/12 05:11:56;;;;;;;58.50;41.47;;;21.50;53.30;;;;;;5230072;55;21633;-47
2022/11/12 05:16:57;;;;;;;60.30;42.72;;;21.50;53.40;;;;;;4907788;55;21552;-48
2022/11/12 05:22:06;;;;;;;57.72;40.53;;;21.50;53.40;;;;;;4880404;55;21013;-47
2022/11/12 05:27:11;;;;;;;57.58;39.75;;;21.50;53.30;;;;;;4816590;55;21142;-46
2022/11/12 05:32:14;;;;;;;56.53;40.95;;;21.50;53.40;;;;;;5120596;55;21013;-42
2022/11/12 05:37:15;;;;;;;54.60;40.08;;;21.50;53.50;;;;;;4762139;55;20987;-46
2022/11/12 05:42:16;;;;;;;56.55;40.33;;;21.60;53.40;;;;;;5230769;55;20994;-45
2022/11/12 05:47:17;;;;;;;55.92;40.58;;;21.50;53.50;;;;;;4800937;55;20998;-44
2022/11/12 05:52:17;;;;;;;52.80;39.13;;;21.50;53.40;;;;;;4754013;55;21053;-44
2022/11/12 05:57:18;;;;;;;56.33;41.00;;;21.50;53.40;;;;;;4744929;59;21468;-41
2022/11/12 06:02:19;;;;;;;53.80;39.55;;;21.50;53.40;;;;;;4792920;55;21093;-44
2022/11/12 06:07:20;;;;;;;51.05;37.22;;;21.50;53.40;;;;;;4957708;55;21005;-41
2022/11/12 06:12:20;;;;;;;50.53;38.45;;;21.50;53.50;;;;;;4918858;55;21548;-40
2022/11/12 06:17:21;;;;;;;52.05;39.20;;;21.50;53.40;;;;;;4784925;55;21061;-44
2022/11/12 06:22:22;;;;;;;51.92;38.45;;;21.50;53.30;;;;;;4782881;55;21014;-46
2022/11/12 06:27:23;;;;;;;52.88;37.90;;;21.50;53.30;;;;;;4745488;59;20990;-39
2022/11/12 06:32:24;;;;;;;51.40;36.97;;;21.50;53.30;;;;;;4745600;59;21477;-44
2022/11/12 06:37:25;;;;;;;50.95;36.80;;;21.40;53.30;;;;;;4933673;55;21503;-43
2022/11/12 06:42:26;;;;;;;51.40;37.70;;;21.50;53.40;;;;;;4815722;55;21074;-48
2022/11/12 06:47:26;;;;;;;47.53;36.33;;;21.50;53.30;;;;;;4801457;55;21046;-45
2022/11/12 06:52:27;;;;;;;50.60;37.25;;;21.50;53.30;;;;;;4854089;55;21013;-45
2022/11/12 06:57:28;;;;;;;52.58;38.28;;;21.50;53.40;;;;;;4874958;55;21519;-43
2022/11/12 07:02:29;;;;;;;53.47;39.40;;;21.50;53.30;;;;;;4849087;55;20998;-48
2022/11/12 07:07:30;;;;;;;46.95;36.53;;;21.50;53.40;;;;;;4745411;59;21085;-44
2022/11/12 07:12:30;;;;;;;47.75;34.95;;;21.40;53.30;;;;;;4746442;55;21102;-45
2022/11/12 07:17:31;;;;;;;49.55;37.42;;;21.50;53.40;;;;;;4745560;59;20994;-42
2022/11/12 07:22:33;;;;;;;47.03;36.50;;;21.40;53.30;;;;;;5057887;55;20997;-46
2022/11/12 07:27:34;;;;;;;51.28;38.53;;;21.50;53.30;;;;;;4745454;57;21528;-40
2022/11/12 07:32:35;;;;;;;50.78;37.15;;;21.40;53.30;;;;;;4982230;55;21111;-45
2022/11/12 07:37:35;;;;;;;51.83;37.92;;;21.50;53.40;;;;;;4801740;55;20997;-45
2022/11/12 07:42:36;;;;;;;51.55;37.97;;;21.50;53.40;;;;;;4769072;55;21510;-46
2022/11/12 07:47:37;;;;;;;49.35;36.15;;;21.50;53.40;;;;;;4767811;55;21080;-42
2022/11/12 07:52:38;;;;;;;49.17;36.72;;;21.50;53.40;;;;;;4798989;55;21010;-50
2022/11/12 07:57:38;;;;;;;52.05;38.70;;;21.40;53.40;;;;;;4949089;55;21001;-46
2022/11/12 08:02:39;;;;;;;52.25;38.92;;;21.40;53.30;;;;;;4745169;59;21511;-44
2022/11/12 08:07:40;;;;;;;52.88;38.95;;;21.50;53.40;;;;;;4772417;55;21535;-47
2022/11/12 08:12:41;;;;;;;52.03;39.42;;;21.50;53.40;;;;;;4938199;55;21117;-47
2022/11/12 08:17:41;;;;;;;52.30;37.63;;;21.40;53.30;;;;;;4760897;55;21073;-46
2022/11/12 08:22:42;;;;;;;52.30;37.58;;;21.40;53.40;;;;;;4743861;59;21054;-42
2022/11/12 08:27:43;;;;;;;51.70;38.80;;;21.50;53.40;;;;;;4745004;59;21062;-50
2022/11/12 08:32:44;;;;;;;50.65;38.88;;;21.40;53.40;;;;;;4929450;55;21069;-42
2022/11/12 08:37:45;;;;;;;55.10;40.33;;;21.50;53.40;;;;;;4834604;55;21021;-45
2022/11/12 08:42:45;;;;;;;50.60;39.45;;;21.40;53.30;;;;;;4930573;55;21077;-41
2022/11/12 08:47:46;;;;;;;54.65;40.10;;;21.40;53.40;;;;;;4744720;59;21536;-45
2022/11/12 08:52:47;;;;;;;49.83;38.78;;;21.50;53.50;;;;;;4848041;55;21496;-40
2022/11/12 08:57:48;;;;;;;54.35;41.08;;;21.50;53.50;;;;;;4782359;55;21058;-36
2022/11/12 09:02:49;;;;;;;51.65;40.12;;;21.50;53.60;;;;;;4764704;55;21029;-47
2022/11/12 09:07:59;;;;;;;50.28;38.85;;;21.50;53.60;;;;;;4744628;59;21050;-44
2022/11/12 09:13:00;;;;;;;52.05;39.58;;;21.50;53.40;;;;;;4844950;55;21186;-44
2022/11/12 09:18:04;;;;;;;53.92;40.40;;;21.50;53.50;;;;;;4799074;55;21528;-50
2022/11/12 09:23:09;;;;;;;54.67;42.15;;;21.50;53.60;;;;;;4880369;55;21010;-43
2022/11/12 09:28:15;;;;;;;56.92;42.92;;;21.50;53.60;;;;;;4927884;55;21488;-49
2022/11/12 09:33:24;;;;;;;54.72;42.05;;;21.50;53.60;;;;;;4744183;59;21107;-38
2022/11/12 09:38:25;;;;;;;54.50;42.70;;;21.50;53.50;;;;;;4744951;55;21143;-46
2022/11/12 09:43:43;;;;;;;57.50;41.97;;;21.50;53.60;;;;;;4744929;59;21002;-47
2022/11/12 09:48:48;;;;;;;56.40;43.50;;;21.50;53.60;;;;;;4899719;55;20994;-43
2022/11/12 09:53:57;;;;;;;61.13;43.90;;;21.50;53.70;;;;;;4744455;59;21125;-45
2022/11/12 09:58:58;;;;;;;54.88;43.10;;;21.50;53.60;;;;;;4896027;55;20998;-47
2022/11/12 10:05:39;;;;;;;57.97;44.17;;;21.50;53.70;;;;;;4782733;55;21061;-50
2022/11/12 10:12:56;;;;;;;58.90;43.35;;;21.50;53.60;;;;;;4744201;59;21071;-45
2022/11/12 10:18:24;;;;;;;56.30;42.42;;;21.70;53.70;;;;;;4783255;55;21501;-41
2022/11/12 10:23:33;;;;;;;59.47;44.78;;;21.50;53.60;;;;;;4817172;55;21017;-45
2022/11/12 10:28:45;;;;;;;59.72;43.45;;;21.50;53.70;;;;;;4771962;55;20994;-44
2022/11/12 10:33:46;;;;;;;59.97;44.90;;;21.50;53.70;;;;;;4785868;55;21572;-45
2022/11/12 10:38:51;;;;;;;58.87;44.60;;;21.60;53.70;;;;;;4791238;55;21037;-45
2022/11/12 10:44:04;;;;;;;59.78;44.65;;;21.50;53.70;;;;;;4816310;55;21121;-43
2022/11/12 10:51:12;;;;;;;59.83;46.15;;;21.60;53.60;;;;;;4782185;55;21042;-43
2022/11/12 10:59:09;;;;;;;60.88;45.12;;;21.60;53.70;;;;;;4780296;55;21090;-45
2022/11/12 11:04:32;;;;;;;58.63;44.78;;;21.60;53.70;;;;;;4788753;55;21468;-45
2022/11/12 11:09:33;;;;;;;60.88;44.38;;;21.50;53.80;;;;;;4794171;55;21492;-45
2022/11/12 11:14:34;;;;;;;60.05;45.25;;;21.70;53.90;;;;;;4744275;55;21178;-41
2022/11/12 11:19:39;;;;;;;62.40;45.70;;;21.60;53.90;;;;;;4893186;55;21433;-45
2022/11/12 11:25:27;;;;;;;64.00;47.13;;;21.60;53.90;;;;;;4843052;55;21015;-37
2022/11/12 11:30:28;;;;;;;64.35;47.20;;;21.60;53.80;;;;;;5122881;55;20990;-47
2022/11/12 11:35:52;;;;;;;62.47;46.45;;;21.60;53.90;;;;;;4812312;55;21010;-49
2022/11/12 11:42:38;;;;;;;62.97;48.08;;;21.60;53.90;;;;;;4875973;55;21449;-38
2022/11/12 11:47:53;;;;;;;66.25;47.95;;;21.60;53.90;;;;;;4764810;55;21054;-45
2022/11/12 11:53:12;;;;;;;63.00;47.80;;;21.60;54.00;;;;;;4766733;55;21507;-43
2022/11/12 12:05:09;;;;;;;63.05;47.35;;;21.60;53.90;;;;;;4744635;59;21046;-47
2022/11/12 12:10:24;;;;;;;65.45;48.75;;;21.60;54.00;;;;;;4760241;55;21030;-48
2022/11/12 12:16:12;;;;;;;66.45;50.80;;;21.60;54.10;;;;;;4744514;59;21005;-39
2022/11/12 12:21:18;;;;;;;64.22;49.20;;;21.60;54.00;;;;;;4855401;55;21014;-43
2022/11/12 12:33:32;;;;;;;66.57;49.47;;;21.60;54.10;;;;;;4812793;55;20987;-41
2022/11/12 12:39:08;;;;;;;66.12;50.08;;;21.60;54.10;;;;;;4744987;59;21066;-48
2022/11/12 12:44:09;;;;;;;67.03;50.92;;;21.60;54.10;;;;;;5153391;55;21034;-38
2022/11/12 12:49:16;;;;;;;62.83;48.83;;;21.60;54.20;;;;;;4745228;59;21010;-49
2022/11/12 12:57:57;;;;;;;64.85;49.08;;;21.60;54.20;;;;;;4779518;55;21068;-41
2022/11/12 13:02:58;;;;;;;62.47;48.22;;;21.60;54.20;;;;;;4745505;59;21054;-48
2022/11/12 13:08:08;;;;;;;63.45;49.25;;;21.70;54.30;;;;;;4845713;55;21080;-42
2022/11/12 13:14:28;;;;;;;64.15;49.42;;;21.60;54.20;;;;;;4756136;55;21053;-39
2022/11/12 13:19:33;;;;;;;64.35;50.55;;;21.60;54.20;;;;;;4858829;55;21540;-41
2022/11/12 13:31:41;;;;;;;64.20;48.40;;;21.60;54.30;;;;;;4879886;55;21042;-45
2022/11/12 13:37:01;;;;;;;64.03;49.83;;;21.60;54.30;;;;;;5230484;55;21054;-40
2022/11/12 13:47:37;;;;;;;65.62;50.17;;;21.60;54.20;;;;;;4780111;55;21634;-44
2022/11/12 13:52:39;;;;;;;64.53;50.50;;;21.60;54.30;;;;;;4751086;55;21041;-45
2022/11/12 13:57:40;;;;;;;66.45;51.72;;;21.60;54.30;;;;;;5227204;55;20982;-43
2022/11/12 14:02:43;;;;;;;63.20;50.55;;;21.60;54.30;;;;;;4777305;55;21037;-40
2022/11/12 14:08:16;;;;;;;66.43;51.97;;;21.60;54.30;;;;;;4983312;55;20986;-42
2022/11/12 14:13:43;;;;;;;61.20;48.97;;;21.60;54.20;;;;;;4745449;55;20990;-43
2022/11/12 14:19:27;;;;;;;63.28;49.40;;;21.60;54.40;;;;;;4813728;55;20998;-36
2022/11/12 14:24:31;;;;;;;63.65;49.92;;;21.60;54.30;;;;;;4755985;55;21038;-36
2022/11/12 14:29:32;;;;;;;63.58;49.05;;;21.60;54.30;;;;;;4850426;55;21573;-42
2022/11/12 14:34:33;;;;;;;66.30;49.97;;;21.60;54.30;;;;;;4859503;55;21070;-47
2022/11/12 14:39:41;;;;;;;64.82;50.63;;;21.60;54.30;;;;;;4804914;55;21002;-36
2022/11/12 14:44:42;;;;;;;62.67;48.50;;;21.60;54.20;;;;;;4935897;55;21452;-40
2022/11/12 14:49:46;;;;;;;64.28;48.95;;;21.60;54.30;;;;;;4745435;59;21006;-43
2022/11/12 14:54:59;;;;;;;63.75;48.95;;;21.60;54.30;;;;;;4863976;55;21012;-44
2022/11/12 15:00:37;;;;;;;63.42;47.67;;;21.60;54.30;;;;;;4745215;59;21046;-39
2022/11/12 15:06:09;;;;;;;62.88;48.97;;;21.60;54.40;;;;;;4787638;55;21026;-42
2022/11/12 15:18:00;;;;;;;61.22;48.97;;;21.60;54.30;;;;;;4885165;55;21030;-36
2022/11/12 15:23:01;;;;;;;60.28;47.47;;;21.60;54.30;;;;;;4745770;55;21069;-40
2022/11/12 15:28:13;;;;;;;60.60;45.72;;;21.60;54.30;;;;;;4830197;55;21049;-45
2022/11/12 15:33:20;;;;;;;60.80;48.30;;;21.50;54.20;;;;;;4779860;55;21061;-44
2022/11/12 15:38:54;;;;;;;62.25;48.00;;;21.60;54.20;;;;;;4953278;55;20994;-42
2022/11/12 15:43:55;;;;;;;56.40;45.17;;;21.60;54.20;;;;;;5111332;55;21452;-47
2022/11/12 15:48:56;;;;;;;55.97;45.58;;;21.60;54.20;;;;;;4744946;59;21049;-38
2022/11/12 15:53:57;;;;;;;59.20;45.42;;;21.60;54.20;;;;;;4933401;55;21057;-44
2022/11/12 15:58:58;;;;;;;53.33;43.40;;;21.60;54.20;;;;;;4745445;59;20993;-40
2022/11/12 16:03:59;;;;;;;54.55;43.25;;;21.60;54.20;;;;;;4757869;55;21071;-46
2022/11/12 16:08:59;;;;;;;55.10;43.72;;;21.60;54.20;;;;;;5230149;55;21563;-44
2022/11/12 16:14:05;;;;;;;58.35;44.28;;;21.60;54.20;;;;;;4777816;55;21556;-33
2022/11/12 16:19:13;;;;;;;58.87;45.50;;;21.60;54.00;;;;;;4895999;55;21002;-46
2022/11/12 16:24:14;;;;;;;56.67;45.08;;;21.60;54.20;;;;;;4869286;55;21591;-47
2022/11/12 16:29:15;;;;;;;55.90;44.28;;;21.60;54.10;;;;;;5077916;55;21113;-41
2022/11/12 16:34:16;;;;;;;55.50;43.80;;;21.60;54.10;;;;;;4744647;59;21053;-37
2022/11/12 16:39:17;;;;;;;59.58;46.72;;;21.60;54.20;;;;;;4745058;59;21046;-48
2022/11/12 16:44:17;;;;;;;56.10;45.38;;;21.60;54.10;;;;;;4745106;59;21014;-39
2022/11/12 16:49:20;;;;;;;55.45;45.92;;;21.60;54.10;;;;;;4814268;55;21520;-38
2022/11/12 16:54:21;;;;;;;56.17;45.33;;;21.60;54.20;;;;;;4749426;55;21487;-42
2022/11/12 16:59:22;;;;;;;56.17;44.92;;;21.60;54.10;;;;;;4745306;59;20999;-39
2022/11/12 17:04:25;;;;;;;55.80;44.45;;;21.60;54.10;;;;;;4744759;55;21001;-35
2022/11/12 17:09:26;;;;;;;60.42;48.13;;;21.60;54.20;;;;;;4848284;55;21009;-45
2022/11/12 17:14:27;;;;;;;61.80;48.17;;;21.60;54.10;;;;;;4880374;55;21014;-47
2022/11/12 17:19:28;;;;;;;63.42;48.35;;;21.60;54.20;;;;;;4807377;55;20991;-46
2022/11/12 17:24:28;;;;;;;65.28;49.90;;;21.60;54.20;;;;;;4745247;59;21018;-49
2022/11/12 17:29:29;;;;;;;59.75;48.45;;;21.60;54.10;;;;;;4796075;55;21001;-40
2022/11/12 17:34:30;;;;;;;63.55;49.95;;;21.60;54.10;;;;;;4761028;55;21077;-41
2022/11/12 17:39:31;;;;;;;63.58;50.03;;;21.60;54.10;;;;;;4855235;55;21492;-37
2022/11/12 17:44:35;;;;;;;64.70;51.63;;;21.50;54.70;;;;;;4848310;55;21067;-49
2022/11/12 17:49:35;;;;;;;66.85;50.80;;;21.60;54.20;;;;;;4785307;55;21009;-47
2022/11/12 17:54:36;;;;;;;64.85;52.67;;;21.60;54.10;;;;;;4748434;55;21077;-43
2022/11/12 17:59:37;;;;;;;68.05;52.25;;;21.60;54.10;;;;;;4783368;55;21053;-43
2022/11/12 18:04:38;;;;;;;69.45;53.33;;;21.60;54.10;;;;;;4746702;55;21516;-45
2022/11/12 18:09:39;;;;;;;72.93;54.90;;;21.60;54.20;;;;;;4825196;55;21655;-42
2022/11/12 18:14:39;;;;;;;71.10;54.90;;;21.60;54.20;;;;;;5122299;55;21124;-42
2022/11/12 18:19:40;;;;;;;71.87;55.80;;;21.60;54.20;;;;;;4953063;55;21105;-37
2022/11/12 18:24:41;;;;;;;74.72;55.90;;;21.60;54.20;;;;;;4745050;55;21024;-45
2022/11/12 18:29:44;;;;;;;71.22;54.47;;;21.60;54.20;;;;;;4970382;55;21480;-41
2022/11/12 18:34:45;;;;;;;70.20;56.45;;;21.60;54.20;;;;;;4787158;55;21477;-37
2022/11/12 18:39:46;;;;;;;75.18;58.05;;;21.60;54.20;;;;;;4786108;55;21130;-35
2022/11/12 18:44:46;;;;;;;77.00;59.55;;;21.60;54.20;;;;;;4929693;55;21070;-38
2022/11/12 18:49:47;;;;;;;81.50;60.88;;;21.60;54.20;;;;;;4833099;55;21528;-39
2022/11/12 18:54:48;;;;;;;82.43;61.63;;;21.60;54.20;;;;;;4908180;55;21479;-47
2022/11/12 18:59:51;;;;;;;77.78;62.05;;;21.70;54.30;;;;;;4794816;55;21057;-46
2022/11/12 19:04:52;;;;;;;78.07;59.75;;;21.60;54.80;;;;;;4788708;55;21476;-45
2022/11/12 19:09:53;;;;;;;81.80;61.65;;;21.60;54.90;;;;;;4806374;55;21097;-45
2022/11/12 19:14:53;;;;;;;82.32;64.37;;;21.60;54.30;;;;;;4958156;55;21009;-37
2022/11/12 19:19:54;;;;;;;82.93;64.93;;;21.60;54.20;;;;;;4868154;55;21041;-41
2022/11/12 19:24:55;;;;;;;84.90;65.05;;;21.70;54.20;;;;;;4777587;55;20982;-50
2022/11/12 19:29:56;;;;;;;82.00;63.10;;;21.50;54.10;;;;;;4745330;59;20998;-40
2022/11/12 19:34:57;;;;;;;86.35;66.62;;;21.50;54.20;;;;;;4744688;59;21077;-45
2022/11/12 19:39:58;;;;;;;87.07;66.53;;;21.60;54.20;;;;;;4830503;55;21009;-33
2022/11/12 19:44:59;;;;;;;89.43;68.28;;;21.50;54.10;;;;;;4765702;55;21125;-40
2022/11/12 19:50:00;;;;;;;90.45;68.70;;;21.50;54.20;;;;;;4745101;59;21502;-46
2022/11/12 19:55:00;;;;;;;89.47;67.18;;;21.50;54.10;;;;;;4759143;55;21524;-39
2022/11/12 20:00:03;;;;;;;90.87;70.10;;;21.50;54.10;;;;;;4810618;55;21116;-43
2022/11/12 20:05:04;;;;;;;94.15;70.22;;;21.50;54.10;;;;;;4745423;59;21001;-34
2022/11/12 20:10:06;;;;;;;93.78;72.70;;;21.50;54.10;;;;;;4835638;55;21006;-44
2022/11/12 20:15:07;;;;;;;94.40;71.82;;;21.60;54.10;;;;;;4885588;55;20997;-46
2022/11/12 20:20:09;;;;;;;95.65;71.82;;;21.50;54.10;;;;;;4745720;59;21093;-36
2022/11/12 20:25:10;;;;;;;92.20;70.82;;;21.50;54.10;;;;;;4823566;55;20990;-41
2022/11/12 20:30:12;;;;;;;96.05;73.85;;;21.50;54.10;;;;;;4864440;55;21010;-40
2022/11/12 20:35:13;;;;;;;95.28;72.55;;;21.50;54.10;;;;;;4908125;55;20991;-43
2022/11/12 20:40:14;;;;;;;98.07;73.22;;;21.50;54.10;;;;;;4745355;59;21499;-45
2022/11/12 20:45:15;;;;;;;98.70;74.00;;;21.50;54.00;;;;;;4853922;55;20990;-46
2022/11/12 20:50:16;;;;;;;95.57;72.80;;;21.50;54.10;;;;;;4782743;55;21009;-42
2022/11/12 20:55:17;;;;;;;97.97;76.03;;;21.50;54.10;;;;;;4771414;55;21002;-43
2022/11/12 21:00:18;;;;;;;99.32;76.37;;;21.50;54.00;;;;;;4757051;55;21660;-43
2022/11/12 21:05:19;;;;;;;103.40;77.62;;;21.50;54.00;;;;;;5192576;55;21561;-47
2022/11/12 21:10:20;;;;;;;100.75;77.22;;;21.50;54.00;;;;;;4744149;59;21093;-44
2022/11/12 21:15:21;;;;;;;101.55;76.97;;;21.50;54.00;;;;;;4777482;55;21013;-42
2022/11/12 21:20:21;;;;;;;100.03;76.87;;;21.50;53.90;;;;;;4778670;55;21077;-41
2022/11/12 21:25:22;;;;;;;102.00;76.90;;;21.40;53.90;;;;;;4745037;59;21014;-37
2022/11/12 21:30:23;;;;;;;101.72;78.30;;;21.50;54.60;;;;;;4745178;59;21010;-42
2022/11/12 21:35:24;;;;;;;103.20;79.12;;;21.50;53.90;;;;;;4744184;59;21073;-47
2022/11/12 21:40:25;;;;;;;104.97;80.20;;;21.50;54.00;;;;;;4824211;55;21539;-44
2022/11/12 21:45:26;;;;;;;101.87;78.50;;;21.50;53.90;;;;;;4745206;59;21085;-43
2022/11/12 21:50:26;;;;;;;102.00;77.47;;;21.50;53.80;;;;;;4770692;55;21017;-44
2022/11/12 21:55:27;;;;;;;105.25;78.70;;;21.50;53.90;;;;;;4798175;55;21065;-35
2022/11/12 22:00:30;;;;;;;108.70;79.93;;;21.50;53.80;;;;;;4765594;55;21472;-37
2022/11/12 22:05:34;;;;;;;103.18;80.25;;;21.50;53.90;;;;;;4745032;59;21079;-41
2022/11/12 22:10:35;;;;;;;104.47;77.65;;;21.50;53.80;;;;;;4753810;55;21097;-38
2022/11/12 22:15:35;;;;;;;104.80;79.97;;;21.50;53.80;;;;;;4841175;55;21078;-41
2022/11/12 22:20:36;;;;;;;103.20;79.20;;;21.50;53.80;;;;;;4744874;59;21614;-43
2022/11/12 22:25:37;;;;;;;103.80;78.68;;;21.50;53.80;;;;;;4744588;59;21532;-35
2022/11/12 22:30:38;;;;;;;107.05;81.63;;;21.50;53.80;;;;;;4750699;55;21070;-42
2022/11/12 22:35:38;;;;;;;108.57;81.82;;;21.50;53.80;;;;;;4845154;55;21010;-42
2022/11/12 22:40:39;;;;;;;109.15;82.18;;;21.50;53.90;;;;;;4744785;59;21065;-43
2022/11/12 22:45:40;;;;;;;103.85;76.90;;;21.50;53.80;;;;;;4745127;59;21384;-41
2022/11/12 22:50:41;;;;;;;103.25;77.85;;;21.50;53.70;;;;;;4866931;55;21073;-42
2022/11/12 22:55:42;;;;;;;103.00;79.97;;;21.40;53.60;;;;;;4969346;55;21537;-43
2022/11/12 23:00:42;;;;;;;102.40;76.82;;;21.50;53.70;;;;;;4940188;55;21121;-43
2022/11/12 23:05:43;;;;;;;104.75;79.85;;;21.50;53.80;;;;;;4858671;55;21099;-46
2022/11/12 23:10:44;;;;;;;107.85;81.37;;;21.50;53.80;;;;;;4829987;55;21017;-43
2022/11/12 23:15:45;;;;;;;100.32;77.72;;;21.50;53.70;;;;;;4744554;59;21153;-40
2022/11/12 23:20:46;;;;;;;107.18;80.35;;;21.50;53.60;;;;;;4761328;55;20986;-42
2022/11/12 23:25:47;;;;;;;104.72;78.30;;;21.50;53.70;;;;;;4745582;55;21093;-42
2022/11/12 23:30:49;;;;;;;102.00;75.60;;;21.50;53.60;;;;;;4755643;55;21002;-45
2022/11/12 23:35:50;;;;;;;102.38;77.95;;;21.40;53.60;;;;;;4744514;59;21552;-42
2022/11/12 23:40:52;;;;;;;101.03;76.07;;;21.40;53.60;;;;;;4927447;55;21050;-44
2022/11/12 23:45:54;;;;;;;100.78;76.18;;;21.40;53.60;;;;;;4773401;55;21073;-43
2022/11/12 23:51:13;;;;;;;96.70;75.72;;;21.40;53.60;;;;;;5111386;55;21001;-46
2022/11/12 23:56:16;;;;;;;101.30;75.45;;;21.50;53.60;;;;;;4790031;55;21002;-47
